Time;durP1;ratioP1;P1;durP2;ratioP2;P2;SDS_P1;SDS_P2;PMS_P1;PMS_P2;Temp;Humidity;BMP_temperature;BMP_pressure;BME280_temperature;BME280_humidity;BME280_pressure;Samples;Min_cycle;Max_cycle;Signal;HPM_P1;HPM_P2
2024/04/03 00:01:22;;;;;;;;;;;;;;;;;;4437405;32;19959;-69
2024/04/03 00:03:47;;;;;;;;;;;;;;;;;;4438327;32;20305;-71
2024/04/03 00:06:13;;;;;;;;;;;;;;;;;;4443638;32;19980;-75
2024/04/03 00:08:39;;;;;;;;;;;;;;;;;;4440037;32;19959;-74
2024/04/03 00:11:04;;;;;;;;;;;;;;;;;;4452681;32;19961;-74
2024/04/03 00:13:29;;;;;;;;;;;;;;;;;;4450456;32;20364;-74
2024/04/03 00:15:54;;;;;;;;;;;;;;;;;;4437332;32;19937;-76
2024/04/03 00:18:19;;;;;;;;;;;;;;;;;;4436859;32;19989;-78
2024/04/03 00:20:44;;;;;;;;;;;;;;;;;;4438254;32;19993;-78
2024/04/03 00:23:09;;;;;;;;;;;;;;;;;;4437038;32;20394;-77
2024/04/03 00:25:34;;;;;;;;;;;;;;;;;;4438553;32;19947;-75
2024/04/03 00:27:59;;;;;;;;;;;;;;;;;;4438775;32;20308;-78
2024/04/03 00:30:25;;;;;;;;;;;;;;;;;;4439104;32;19971;-79
2024/04/03 00:32:50;;;;;;;;;;;;;;;;;;4451493;32;19971;-75
2024/04/03 00:35:15;;;;;;;;;;;;;;;;;;4448614;32;20329;-79
2024/04/03 00:37:40;;;;;;;;;;;;;;;;;;4441917;32;19947;-77
2024/04/03 00:40:05;;;;;;;;;;;;;;;;;;4441829;32;19971;-78
2024/04/03 00:42:30;;;;;;;;;;;;;;;;;;4437049;32;19983;-76
2024/04/03 00:44:55;;;;;;;;;;;;;;;;;;4446983;32;19967;-76
2024/04/03 00:47:21;;;;;;;;;;;;;;;;;;4442882;32;19996;-76
2024/04/03 00:49:46;;;;;;;;;;;;;;;;;;4440245;32;20253;-77
2024/04/03 00:52:11;;;;;;;;;;;;;;;;;;4451793;32;19963;-78
2024/04/03 00:54:36;;;;;;;;;;;;;;;;;;4444347;32;20297;-77
2024/04/03 00:57:01;;;;;;;;;;;;;;;;;;4435708;32;19973;-76
2024/04/03 00:59:26;;;;;;;;;;;;;;;;;;4436958;32;19957;-75
2024/04/03 01:01:51;;;;;;;;;;;;;;;;;;4444511;32;19932;-75
2024/04/03 01:04:16;;;;;;;;;;;;;;;;;;4452379;32;19979;-75
2024/04/03 01:06:41;;;;;;;;;;;;;;;;;;4452958;32;19940;-76
2024/04/03 01:09:06;;;;;;;;;;;;;;;;;;4448210;32;19941;-77
2024/04/03 01:11:32;;;;;;;;;;;;;;;;;;4443225;32;19975;-78
2024/04/03 01:13:58;;;;;;;;;;;;;;;;;;4450263;32;20265;-78
2024/04/03 01:16:23;;;;;;;;;;;;;;;;;;4446071;32;20322;-76
2024/04/03 01:18:48;;;;;;;;;;;;;;;;;;4448622;32;20325;-76
2024/04/03 01:21:13;;;;;;;;;;;;;;;;;;4452390;32;19958;-78
2024/04/03 01:23:38;;;;;;;;;;;;;;;;;;4452059;32;19991;-76
2024/04/03 01:26:03;;;;;;;;;;;;;;;;;;4450499;32;20329;-77
2024/04/03 01:28:28;;;;;;;;;;;;;;;;;;4438458;32;19969;-77
2024/04/03 01:30:53;;;;;;;;;;;;;;;;;;4440526;32;19993;-76
2024/04/03 01:33:18;;;;;;;;;;;;;;;;;;4451580;32;19932;-75
2024/04/03 01:35:43;;;;;;;;;;;;;;;;;;4439254;32;20022;-76
2024/04/03 01:38:09;;;;;;;;;;;;;;;;;;4452449;32;19956;-74
2024/04/03 01:40:35;;;;;;;;;;;;;;;;;;4443415;32;20027;-76
2024/04/03 01:43:00;;;;;;;;;;;;;;;;;;4450089;32;20265;-78
2024/04/03 01:45:25;;;;;;;;;;;;;;;;;;4451520;32;19937;-79
2024/04/03 01:47:50;;;;;;;;;;;;;;;;;;4451445;32;19955;-78
2024/04/03 01:50:15;;;;;;;;;;;;;;;;;;4452074;32;19932;-78
2024/04/03 01:52:40;;;;;;;;;;;;;;;;;;4451595;32;20360;-77
2024/04/03 01:55:05;;;;;;;;;;;;;;;;;;4451086;32;19932;-77
2024/04/03 01:57:30;;;;;;;;;;;;;;;;;;4446601;32;19980;-76
2024/04/03 01:59:55;;;;;;;;;;;;;;;;;;4438297;32;19947;-77
2024/04/03 02:02:20;;;;;;;;;;;;;;;;;;4447549;32;20005;-75
2024/04/03 02:04:46;;;;;;;;;;;;;;;;;;4447209;32;19948;-77
2024/04/03 02:07:11;;;;;;;;;;;;;;;;;;4452151;32;19971;-78
2024/04/03 02:09:36;;;;;;;;;;;;;;;;;;4450692;32;19965;-76
2024/04/03 02:12:02;;;;;;;;;;;;;;;;;;4443679;32;19952;-78
2024/04/03 02:14:27;;;;;;;;;;;;;;;;;;4450751;32;19962;-77
2024/04/03 02:16:54;;;;;;;;;;;;;;;;;;4451424;32;19933;-74
2024/04/03 02:19:19;;;;;;;;;;;;;;;;;;4452371;32;19945;-77
2024/04/03 02:21:44;;;;;;;;;;;;;;;;;;4437490;32;20019;-78
2024/04/03 02:24:09;;;;;;;;;;;;;;;;;;4452426;32;20012;-79
2024/04/03 02:26:34;;;;;;;;;;;;;;;;;;4452891;32;19970;-78
2024/04/03 02:28:59;;;;;;;;;;;;;;;;;;4452136;32;20004;-76
2024/04/03 02:31:25;;;;;;;;;;;;;;;;;;4450744;32;20253;-78
2024/04/03 02:33:50;;;;;;;;;;;;;;;;;;4441457;32;19952;-76
2024/04/03 02:36:15;;;;;;;;;;;;;;;;;;4441781;32;19932;-76
2024/04/03 02:38:40;;;;;;;;;;;;;;;;;;4451190;32;19971;-76
2024/04/03 02:41:05;;;;;;;;;;;;;;;;;;4451332;32;20242;-75
2024/04/03 02:43:30;;;;;;;;;;;;;;;;;;4450680;32;19992;-76
2024/04/03 02:45:55;;;;;;;;;;;;;;;;;;4452299;32;20211;-77
2024/04/03 02:48:20;;;;;;;;;;;;;;;;;;4453009;32;19944;-76
2024/04/03 02:50:46;;;;;;;;;;;;;;;;;;4453198;32;19947;-77
2024/04/03 02:53:12;;;;;;;;;;;;;;;;;;4454391;32;19942;-75
2024/04/03 02:55:37;;;;;;;;;;;;;;;;;;4451806;32;19936;-77
2024/04/03 02:58:02;;;;;;;;;;;;;;;;;;4436921;32;19947;-74
2024/04/03 03:00:27;;;;;;;;;;;;;;;;;;4434934;32;19969;-76
2024/04/03 03:02:53;;;;;;;;;;;;;;;;;;4438283;32;20328;-76
2024/04/03 03:05:18;;;;;;;;;;;;;;;;;;4450533;32;19969;-75
2024/04/03 03:07:43;;;;;;;;;;;;;;;;;;4451748;32;19963;-74
2024/04/03 03:10:08;;;;;;;;;;;;;;;;;;4450930;32;20343;-75
2024/04/03 03:12:33;;;;;;;;;;;;;;;;;;4450509;32;19947;-75
2024/04/03 03:14:58;;;;;;;;;;;;;;;;;;4450747;32;19996;-76
2024/04/03 03:17:23;;;;;;;;;;;;;;;;;;4452646;32;19980;-75
2024/04/03 03:19:49;;;;;;;;;;;;;;;;;;4439587;32;19947;-75
2024/04/03 03:22:14;;;;;;;;;;;;;;;;;;4438980;32;19937;-76
2024/04/03 03:24:39;;;;;;;;;;;;;;;;;;4439255;32;20266;-76
2024/04/03 03:27:04;;;;;;;;;;;;;;;;;;4439041;32;19994;-78
2024/04/03 03:29:29;;;;;;;;;;;;;;;;;;4439132;32;19967;-75
2024/04/03 03:31:54;;;;;;;;;;;;;;;;;;4445459;32;20285;-76
2024/04/03 03:34:19;;;;;;;;;;;;;;;;;;4443344;32;19990;-76
2024/04/03 03:36:45;;;;;;;;;;;;;;;;;;4440084;32;19936;-76
2024/04/03 03:39:10;;;;;;;;;;;;;;;;;;4448913;32;19970;-77
2024/04/03 03:41:35;;;;;;;;;;;;;;;;;;4448000;32;20285;-75
2024/04/03 03:44:00;;;;;;;;;;;;;;;;;;4438961;32;20099;-78
2024/04/03 03:46:25;;;;;;;;;;;;;;;;;;4438853;32;20338;-78
2024/04/03 03:54:22;;;;;;;;;;;;;;;;;;4446879;32;19947;-77
2024/04/03 03:56:47;;;;;;;;;;;;;;;;;;4441328;32;19940;-76
2024/04/03 03:59:12;;;;;;;;;;;;;;;;;;4446406;32;19933;-80
2024/04/03 04:01:37;;;;;;;;;;;;;;;;;;4453714;32;19992;-77
2024/04/03 04:04:02;;;;;;;;;;;;;;;;;;4443732;32;20410;-76
2024/04/03 04:06:27;;;;;;;;;;;;;;;;;;4438461;32;19949;-76
2024/04/03 04:08:52;;;;;;;;;;;;;;;;;;4448755;32;19956;-77
2024/04/03 04:11:18;;;;;;;;;;;;;;;;;;4440859;32;20001;-77
2024/04/03 04:13:43;;;;;;;;;;;;;;;;;;4437398;32;19941;-77
2024/04/03 04:16:08;;;;;;;;;;;;;;;;;;4437269;32;19947;-77
2024/04/03 04:18:33;;;;;;;;;;;;;;;;;;4437373;32;19960;-77
2024/04/03 04:21:00;;;;;;;;;;;;;;;;;;4439131;32;19932;-78
2024/04/03 04:23:25;;;;;;;;;;;;;;;;;;4447243;32;19971;-76
2024/04/03 04:25:50;;;;;;;;;;;;;;;;;;4452950;32;20293;-77
2024/04/03 04:28:15;;;;;;;;;;;;;;;;;;4444761;32;19948;-76
2024/04/03 04:30:43;;;;;;;;;;;;;;;;;;4438966;32;19975;-77
2024/04/03 04:33:08;;;;;;;;;;;;;;;;;;4449497;32;19933;-78
2024/04/03 04:35:33;;;;;;;;;;;;;;;;;;4445402;32;20296;-79
2024/04/03 04:37:59;;;;;;;;;;;;;;;;;;4453111;32;19995;-76
2024/04/03 04:40:24;;;;;;;;;;;;;;;;;;4443958;32;19937;-76
2024/04/03 04:42:49;;;;;;;;;;;;;;;;;;4438848;32;19941;-76
2024/04/03 04:45:14;;;;;;;;;;;;;;;;;;4438885;32;19949;-76
2024/04/03 04:47:39;;;;;;;;;;;;;;;;;;4441437;32;19963;-76
2024/04/03 04:50:04;;;;;;;;;;;;;;;;;;4454007;32;19943;-76
2024/04/03 04:52:30;;;;;;;;;;;;;;;;;;4454908;32;20426;-77
2024/04/03 04:54:55;;;;;;;;;;;;;;;;;;4455313;32;19991;-77
2024/04/03 04:57:20;;;;;;;;;;;;;;;;;;4453517;32;19936;-76
2024/04/03 04:59:45;;;;;;;;;;;;;;;;;;4442930;32;19941;-76
2024/04/03 05:02:10;;;;;;;;;;;;;;;;;;4439189;32;20310;-75
2024/04/03 05:04:35;;;;;;;;;;;;;;;;;;4451398;32;19995;-77
2024/04/03 05:07:02;;;;;;;;;;;;;;;;;;4450767;32;19972;-75
2024/04/03 05:09:28;;;;;;;;;;;;;;;;;;4440552;32;19983;-75
2024/04/03 05:11:53;;;;;;;;;;;;;;;;;;4443927;32;19937;-77
2024/04/03 05:14:18;;;;;;;;;;;;;;;;;;4439703;32;19948;-75
2024/04/03 05:16:43;;;;;;;;;;;;;;;;;;4440253;32;19937;-75
2024/04/03 05:19:08;;;;;;;;;;;;;;;;;;4437351;32;19948;-77
2024/04/03 05:21:35;;;;;;;;;;;;;;;;;;4439444;32;19933;-77
2024/04/03 05:24:00;;;;;;;;;;;;;;;;;;4448390;32;19980;-76
2024/04/03 05:26:25;;;;;;;;;;;;;;;;;;4436384;32;19980;-76
2024/04/03 05:28:50;;;;;;;;;;;;;;;;;;4436963;32;19998;-76
2024/04/03 05:31:17;;;;;;;;;;;;;;;;;;4442477;32;19947;-77
2024/04/03 05:33:43;;;;;;;;;;;;;;;;;;4450447;32;19928;-75
2024/04/03 05:36:08;;;;;;;;;;;;;;;;;;4450786;32;19942;-76
2024/04/03 05:38:33;;;;;;;;;;;;;;;;;;4451779;32;19932;-76
2024/04/03 05:40:58;;;;;;;;;;;;;;;;;;4448162;32;19933;-75
2024/04/03 05:43:23;;;;;;;;;;;;;;;;;;4435880;32;19956;-77
2024/04/03 05:45:48;;;;;;;;;;;;;;;;;;4436841;32;20276;-76
2024/04/03 05:48:14;;;;;;;;;;;;;;;;;;4440133;32;20290;-78
2024/04/03 05:50:39;;;;;;;;;;;;;;;;;;4437129;32;19951;-74
2024/04/03 05:53:04;;;;;;;;;;;;;;;;;;4439020;32;19941;-77
2024/04/03 05:55:29;;;;;;;;;;;;;;;;;;4437737;32;19966;-77
2024/04/03 05:57:54;;;;;;;;;;;;;;;;;;4435808;32;19949;-77
2024/04/03 06:00:20;;;;;;;;;;;;;;;;;;4436164;32;19968;-77
2024/04/03 06:02:45;;;;;;;;;;;;;;;;;;4436295;32;20257;-76
2024/04/03 06:05:10;;;;;;;;;;;;;;;;;;4436515;32;20317;-78
2024/04/03 06:07:35;;;;;;;;;;;;;;;;;;4448024;32;19951;-76
2024/04/03 06:10:01;;;;;;;;;;;;;;;;;;4453558;32;19951;-78
2024/04/03 06:12:26;;;;;;;;;;;;;;;;;;4453556;32;19982;-76
2024/04/03 06:14:51;;;;;;;;;;;;;;;;;;4436271;32;19945;-79
2024/04/03 06:17:16;;;;;;;;;;;;;;;;;;4445108;32;19936;-76
2024/04/03 06:19:41;;;;;;;;;;;;;;;;;;4451245;32;19940;-78
2024/04/03 06:22:06;;;;;;;;;;;;;;;;;;4452351;32;19944;-78
2024/04/03 06:24:32;;;;;;;;;;;;;;;;;;4447670;32;19957;-78
2024/04/03 06:26:57;;;;;;;;;;;;;;;;;;4438764;32;19973;-76
2024/04/03 06:29:22;;;;;;;;;;;;;;;;;;4450894;32;19949;-77
2024/04/03 06:31:52;;;;;;;;;;;;;;;;;;4439455;32;20359;-77
2024/04/03 06:34:17;;;;;;;;;;;;;;;;;;4434621;32;19928;-76
2024/04/03 06:36:43;;;;;;;;;;;;;;;;;;4441717;32;20008;-76
2024/04/03 06:39:08;;;;;;;;;;;;;;;;;;4434005;32;19945;-76
2024/04/03 06:41:33;;;;;;;;;;;;;;;;;;4437514;32;19937;-77
2024/04/03 06:43:58;;;;;;;;;;;;;;;;;;4435732;32;19936;-76
2024/04/03 06:46:23;;;;;;;;;;;;;;;;;;4448649;32;19936;-76
2024/04/03 06:48:48;;;;;;;;;;;;;;;;;;4451709;32;19936;-76
2024/04/03 06:51:14;;;;;;;;;;;;;;;;;;4452455;32;19975;-78
2024/04/03 06:53:39;;;;;;;;;;;;;;;;;;4442228;32;19959;-78
2024/04/03 06:56:04;;;;;;;;;;;;;;;;;;4446008;32;19979;-76
2024/04/03 06:58:29;;;;;;;;;;;;;;;;;;4449537;32;20313;-77
2024/04/03 07:00:54;;;;;;;;;;;;;;;;;;4447943;32;19960;-76
2024/04/03 07:03:19;;;;;;;;;;;;;;;;;;4436724;32;20297;-75
2024/04/03 07:05:44;;;;;;;;;;;;;;;;;;4438034;32;19984;-76
2024/04/03 07:08:09;;;;;;;;;;;;;;;;;;4451434;32;19970;-79
2024/04/03 07:10:35;;;;;;;;;;;;;;;;;;4450083;32;19951;-76
2024/04/03 07:13:02;;;;;;;;;;;;;;;;;;4446645;32;19933;-77
2024/04/03 07:15:29;;;;;;;;;;;;;;;;;;4450638;32;20052;-77
2024/04/03 07:17:54;;;;;;;;;;;;;;;;;;4437340;32;20355;-76
2024/04/03 07:20:19;;;;;;;;;;;;;;;;;;4434147;32;20291;-78
2024/04/03 07:22:44;;;;;;;;;;;;;;;;;;4442336;32;19962;-75
2024/04/03 07:25:11;;;;;;;;;;;;;;;;;;4451086;32;20203;-78
2024/04/03 07:27:36;;;;;;;;;;;;;;;;;;4441171;32;20250;-78
2024/04/03 07:30:01;;;;;;;;;;;;;;;;;;4434914;32;20276;-76
2024/04/03 07:32:26;;;;;;;;;;;;;;;;;;4447664;32;19937;-78
2024/04/03 07:34:51;;;;;;;;;;;;;;;;;;4438173;32;20300;-78
2024/04/03 07:37:16;;;;;;;;;;;;;;;;;;4443423;32;20365;-77
2024/04/03 07:39:41;;;;;;;;;;;;;;;;;;4446618;32;19989;-76
2024/04/03 07:42:06;;;;;;;;;;;;;;;;;;4449736;32;20350;-76
2024/04/03 07:44:32;;;;;;;;;;;;;;;;;;4448355;32;19944;-77
2024/04/03 07:46:57;;;;;;;;;;;;;;;;;;4439462;32;20332;-76
2024/04/03 07:49:22;;;;;;;;;;;;;;;;;;4435342;32;20227;-78
2024/04/03 07:51:48;;;;;;;;;;;;;;;;;;4435221;32;20348;-75
2024/04/03 07:54:13;;;;;;;;;;;;;;;;;;4450881;32;19932;-77
2024/04/03 07:56:38;;;;;;;;;;;;;;;;;;4437642;32;19955;-76
2024/04/03 07:59:04;;;;;;;;;;;;;;;;;;4434885;32;19989;-76
2024/04/03 08:01:29;;;;;;;;;;;;;;;;;;4441318;32;19936;-75
2024/04/03 08:03:54;;;;;;;;;;;;;;;;;;4451751;32;19988;-75
2024/04/03 08:06:20;;;;;;;;;;;;;;;;;;4451929;32;19941;-76
2024/04/03 08:08:45;;;;;;;;;;;;;;;;;;4448172;32;20031;-76
2024/04/03 08:11:10;;;;;;;;;;;;;;;;;;4443167;32;19966;-76
2024/04/03 08:13:35;;;;;;;;;;;;;;;;;;4454423;32;19958;-76
2024/04/03 08:16:00;;;;;;;;;;;;;;;;;;4449788;32;20308;-76
2024/04/03 08:18:26;;;;;;;;;;;;;;;;;;4454613;32;19941;-75
2024/04/03 08:20:51;;;;;;;;;;;;;;;;;;4443562;32;19998;-76
2024/04/03 08:23:16;;;;;;;;;;;;;;;;;;4438409;32;20012;-76
2024/04/03 08:25:41;;;;;;;;;;;;;;;;;;4436710;32;20317;-74
2024/04/03 08:28:06;;;;;;;;;;;;;;;;;;4439499;32;19937;-76
2024/04/03 08:30:33;;;;;;;;;;;;;;;;;;4436366;32;20379;-75
2024/04/03 08:32:59;;;;;;;;;;;;;;;;;;4446495;32;19929;-74
2024/04/03 08:35:24;;;;;;;;;;;;;;;;;;4437857;32;19936;-76
2024/04/03 08:37:49;;;;;;;;;;;;;;;;;;4437891;32;19963;-75
2024/04/03 08:40:14;;;;;;;;;;;;;;;;;;4439345;32;20215;-75
2024/04/03 08:42:40;;;;;;;;;;;;;;;;;;4436322;32;19976;-75
2024/04/03 08:45:05;;;;;;;;;;;;;;;;;;4435570;32;19945;-74
2024/04/03 08:47:30;;;;;;;;;;;;;;;;;;4438375;32;19972;-76
2024/04/03 08:49:55;;;;;;;;;;;;;;;;;;4451114;32;19954;-75
2024/04/03 08:52:20;;;;;;;;;;;;;;;;;;4446095;32;20356;-76
2024/04/03 08:54:45;;;;;;;;;;;;;;;;;;4451057;32;20003;-75
2024/04/03 08:57:10;;;;;;;;;;;;;;;;;;4444837;32;19941;-74
2024/04/03 08:59:36;;;;;;;;;;;;;;;;;;4438329;32;19944;-74
2024/04/03 09:02:01;;;;;;;;;;;;;;;;;;4443658;32;19966;-74
2024/04/03 09:04:27;;;;;;;;;;;;;;;;;;4451589;32;20227;-74
2024/04/03 09:06:52;;;;;;;;;;;;;;;;;;4445862;32;19993;-74
2024/04/03 09:09:17;;;;;;;;;;;;;;;;;;4448603;32;20336;-74
2024/04/03 09:11:42;;;;;;;;;;;;;;;;;;4448385;32;19936;-74
2024/04/03 09:14:08;;;;;;;;;;;;;;;;;;4444354;32;19988;-74
2024/04/03 09:16:33;;;;;;;;;;;;;;;;;;4446620;32;19959;-75
2024/04/03 09:18:58;;;;;;;;;;;;;;;;;;4448500;32;19976;-74
2024/04/03 09:21:23;;;;;;;;;;;;;;;;;;4436297;32;19941;-75
2024/04/03 09:23:48;;;;;;;;;;;;;;;;;;4444379;32;19950;-72
2024/04/03 09:26:13;;;;;;;;;;;;;;;;;;4448785;32;19953;-74
2024/04/03 09:28:38;;;;;;;;;;;;;;;;;;4452663;32;19969;-74
2024/04/03 09:31:03;;;;;;;;;;;;;;;;;;4436924;32;19974;-72
2024/04/03 09:33:31;;;;;;;;;;;;;;;;;;4436780;32;19940;-74
2024/04/03 09:35:56;;;;;;;;;;;;;;;;;;4434272;32;19937;-73
2024/04/03 09:38:21;;;;;;;;;;;;;;;;;;4439194;32;19951;-73
2024/04/03 09:40:47;;;;;;;;;;;;;;;;;;4451862;32;20291;-74
2024/04/03 09:43:12;;;;;;;;;;;;;;;;;;4450487;32;19932;-74
2024/04/03 09:45:37;;;;;;;;;;;;;;;;;;4442025;32;19988;-73
2024/04/03 09:48:02;;;;;;;;;;;;;;;;;;4444029;32;19949;-73
2024/04/03 09:50:28;;;;;;;;;;;;;;;;;;4437272;32;19937;-75
2024/04/03 09:52:53;;;;;;;;;;;;;;;;;;4440331;32;19952;-74
2024/04/03 09:55:20;;;;;;;;;;;;;;;;;;4451809;32;19932;-74
2024/04/03 09:57:48;;;;;;;;;;;;;;;;;;4452969;32;20366;-74
2024/04/03 10:00:13;;;;;;;;;;;;;;;;;;4450247;32;19971;-74
2024/04/03 10:02:38;;;;;;;;;;;;;;;;;;4448834;32;19953;-73
2024/04/03 10:05:04;;;;;;;;;;;;;;;;;;4445799;32;19944;-74
2024/04/03 10:07:30;;;;;;;;;;;;;;;;;;4433935;32;19953;-73
2024/04/03 10:09:55;;;;;;;;;;;;;;;;;;4448112;32;19964;-75
2024/04/03 10:12:20;;;;;;;;;;;;;;;;;;4438029;32;19982;-74
2024/04/03 10:14:47;;;;;;;;;;;;;;;;;;4436527;32;19932;-73
2024/04/03 10:17:12;;;;;;;;;;;;;;;;;;4438179;32;20366;-75
2024/04/03 10:19:37;;;;;;;;;;;;;;;;;;4435506;32;20322;-76
2024/04/03 10:22:02;;;;;;;;;;;;;;;;;;4435386;32;19948;-74
2024/04/03 10:24:28;;;;;;;;;;;;;;;;;;4444068;32;19943;-73
2024/04/03 10:26:53;;;;;;;;;;;;;;;;;;4451134;32;19932;-75
2024/04/03 10:29:19;;;;;;;;;;;;;;;;;;4444124;32;20375;-76
2024/04/03 10:31:44;;;;;;;;;;;;;;;;;;4440436;32;20348;-76
2024/04/03 10:34:09;;;;;;;;;;;;;;;;;;4449266;32;19944;-76
2024/04/03 10:36:34;;;;;;;;;;;;;;;;;;4449402;32;19980;-75
2024/04/03 10:38:59;;;;;;;;;;;;;;;;;;4446932;32;19949;-75
2024/04/03 10:41:24;;;;;;;;;;;;;;;;;;4436287;32;19944;-72
2024/04/03 10:43:50;;;;;;;;;;;;;;;;;;4437444;32;19971;-74
2024/04/03 10:46:15;;;;;;;;;;;;;;;;;;4434541;32;20310;-73
2024/04/03 10:48:40;;;;;;;;;;;;;;;;;;4448861;32;19975;-75
2024/04/03 10:51:05;;;;;;;;;;;;;;;;;;4443575;32;19949;-73
2024/04/03 10:53:31;;;;;;;;;;;;;;;;;;4435585;32;20340;-74
2024/04/03 10:55:57;;;;;;;;;;;;;;;;;;4436040;32;19941;-74
2024/04/03 10:58:22;;;;;;;;;;;;;;;;;;4436020;32;19984;-72
2024/04/03 11:00:47;;;;;;;;;;;;;;;;;;4440026;32;19984;-74
2024/04/03 11:03:12;;;;;;;;;;;;;;;;;;4442281;32;19940;-74
2024/04/03 11:05:38;;;;;;;;;;;;;;;;;;4438247;32;19949;-71
2024/04/03 11:08:03;;;;;;;;;;;;;;;;;;4442322;32;19939;-72
2024/04/03 11:10:28;;;;;;;;;;;;;;;;;;4434610;32;19940;-72
2024/04/03 11:12:53;;;;;;;;;;;;;;;;;;4443764;32;19932;-72
2024/04/03 11:15:18;;;;;;;;;;;;;;;;;;4450383;32;19992;-72
2024/04/03 11:17:44;;;;;;;;;;;;;;;;;;4447240;32;19955;-72
2024/04/03 11:20:09;;;;;;;;;;;;;;;;;;4445229;32;19952;-72
2024/04/03 11:22:34;;;;;;;;;;;;;;;;;;4435942;32;19952;-72
2024/04/03 11:25:00;;;;;;;;;;;;;;;;;;4441392;32;19991;-71
2024/04/03 11:27:25;;;;;;;;;;;;;;;;;;4444292;32;20343;-71
2024/04/03 11:29:51;;;;;;;;;;;;;;;;;;4436319;32;19961;-72
2024/04/03 11:32:16;;;;;;;;;;;;;;;;;;4442411;32;19933;-71
2024/04/03 11:34:41;;;;;;;;;;;;;;;;;;4450304;32;19932;-72
2024/04/03 11:37:06;;;;;;;;;;;;;;;;;;4450984;32;19992;-74
2024/04/03 11:39:32;;;;;;;;;;;;;;;;;;4450972;32;19977;-72
2024/04/03 11:41:57;;;;;;;;;;;;;;;;;;4438286;32;20000;-74
2024/04/03 11:44:22;;;;;;;;;;;;;;;;;;4437990;32;19952;-73
2024/04/03 11:46:48;;;;;;;;;;;;;;;;;;4437010;32;19995;-73
2024/04/03 11:49:13;;;;;;;;;;;;;;;;;;4437960;32;20329;-73
2024/04/03 11:51:38;;;;;;;;;;;;;;;;;;4437738;32;19940;-73
2024/04/03 11:54:03;;;;;;;;;;;;;;;;;;4450400;32;19940;-72
2024/04/03 11:56:29;;;;;;;;;;;;;;;;;;4452875;32;19941;-74
2024/04/03 11:58:54;;;;;;;;;;;;;;;;;;4445631;32;19947;-73
2024/04/03 12:01:19;;;;;;;;;;;;;;;;;;4441998;32;20028;-73
2024/04/03 12:03:45;;;;;;;;;;;;;;;;;;4445899;32;19956;-72
2024/04/03 12:06:10;;;;;;;;;;;;;;;;;;4436408;32;20254;-73
2024/04/03 12:08:36;;;;;;;;;;;;;;;;;;4446103;32;19975;-74
2024/04/03 12:11:01;;;;;;;;;;;;;;;;;;4451595;32;20362;-72
2024/04/03 12:13:26;;;;;;;;;;;;;;;;;;4441861;32;19967;-74
2024/04/03 12:15:51;;;;;;;;;;;;;;;;;;4436457;32;20000;-73
2024/04/03 12:18:25;;;;;;;;;;;;;;;;;;4438728;32;19941;-73
2024/04/03 12:20:50;;;;;;;;;;;;;;;;;;4437679;32;19929;-72
2024/04/03 12:23:16;;;;;;;;;;;;;;;;;;4439129;32;19951;-71
2024/04/03 12:25:41;;;;;;;;;;;;;;;;;;4438670;32;19979;-73
2024/04/03 12:28:06;;;;;;;;;;;;;;;;;;4439733;32;19951;-71
2024/04/03 12:30:31;;;;;;;;;;;;;;;;;;4437967;32;20303;-70
2024/04/03 12:33:00;;;;;;;;;;;;;;;;;;4450266;32;20000;-71
2024/04/03 12:35:29;;;;;;;;;;;;;;;;;;4439472;32;19936;-71
2024/04/03 12:37:54;;;;;;;;;;;;;;;;;;4445620;32;20332;-72
2024/04/03 12:40:22;;;;;;;;;;;;;;;;;;4437874;32;19963;-71
2024/04/03 12:42:47;;;;;;;;;;;;;;;;;;4444273;32;19966;-72
2024/04/03 12:45:12;;;;;;;;;;;;;;;;;;4455377;32;20369;-72
2024/04/03 12:47:37;;;;;;;;;;;;;;;;;;4456887;32;19943;-72
2024/04/03 12:50:02;;;;;;;;;;;;;;;;;;4453407;32;19970;-72
2024/04/03 12:52:27;;;;;;;;;;;;;;;;;;4454143;32;19945;-73
2024/04/03 12:54:52;;;;;;;;;;;;;;;;;;4448064;32;19941;-75
2024/04/03 12:57:17;;;;;;;;;;;;;;;;;;4447650;32;19948;-75
2024/04/03 12:59:43;;;;;;;;;;;;;;;;;;4435310;32;19951;-76
2024/04/03 13:02:08;;;;;;;;;;;;;;;;;;4441498;32;19960;-78
2024/04/03 13:04:33;;;;;;;;;;;;;;;;;;4451750;32;19999;-79
2024/04/03 13:06:58;;;;;;;;;;;;;;;;;;4443179;32;19936;-83
2024/04/03 13:09:23;;;;;;;;;;;;;;;;;;4435753;32;19999;-79
2024/04/03 13:11:48;;;;;;;;;;;;;;;;;;4439772;32;19969;-74
2024/04/03 13:14:15;;;;;;;;;;;;;;;;;;4441681;32;19967;-70
2024/04/03 13:16:40;;;;;;;;;;;;;;;;;;4437534;32;19937;-67
2024/04/03 13:19:05;;;;;;;;;;;;;;;;;;4449248;32;19967;-71
2024/04/03 13:21:31;;;;;;;;;;;;;;;;;;4449709;32;19987;-69
2024/04/03 13:23:56;;;;;;;;;;;;;;;;;;4445022;32;19947;-67
2024/04/03 13:26:21;;;;;;;;;;;;;;;;;;4449466;32;19980;-66
2024/04/03 13:28:46;;;;;;;;;;;;;;;;;;4441539;32;20022;-67
2024/04/03 13:31:11;;;;;;;;;;;;;;;;;;4436975;32;19976;-68
2024/04/03 13:33:36;;;;;;;;;;;;;;;;;;4450700;32;19947;-65
2024/04/03 13:36:01;;;;;;;;;;;;;;;;;;4453025;32;19982;-65
2024/04/03 13:38:26;;;;;;;;;;;;;;;;;;4452321;32;19940;-65
2024/04/03 13:40:51;;;;;;;;;;;;;;;;;;4446076;32;20344;-66
2024/04/03 13:43:16;;;;;;;;;;;;;;;;;;4440190;32;19952;-65
2024/04/03 13:45:42;;;;;;;;;;;;;;;;;;4450938;32;19975;-65
2024/04/03 13:48:07;;;;;;;;;;;;;;;;;;4450826;32;19996;-66
2024/04/03 13:50:32;;;;;;;;;;;;;;;;;;4444825;32;19956;-66
2024/04/03 13:52:57;;;;;;;;;;;;;;;;;;4452157;32;19947;-66
2024/04/03 13:55:22;;;;;;;;;;;;;;;;;;4451423;32;19947;-66
2024/04/03 13:57:47;;;;;;;;;;;;;;;;;;4446466;32;20346;-66
2024/04/03 14:00:21;;;;;;;;;;;;;;;;;;4441744;32;19966;-65
2024/04/03 14:02:46;;;;;;;;;;;;;;;;;;4440262;32;19963;-66
2024/04/03 14:05:11;;;;;;;;;;;;;;;;;;4435466;32;19969;-67
2024/04/03 14:07:36;;;;;;;;;;;;;;;;;;4437665;32;19933;-69
2024/04/03 14:10:02;;;;;;;;;;;;;;;;;;4435333;32;19980;-69
2024/04/03 14:12:27;;;;;;;;;;;;;;;;;;4433166;32;19960;-73
2024/04/03 14:14:52;;;;;;;;;;;;;;;;;;4439735;32;19945;-79
2024/04/03 14:17:18;;;;;;;;;;;;;;;;;;4448914;32;20314;-75
2024/04/03 14:19:43;;;;;;;;;;;;;;;;;;4449896;32;19969;-73
2024/04/03 14:22:08;;;;;;;;;;;;;;;;;;4440855;32;19945;-76
2024/04/03 14:24:33;;;;;;;;;;;;;;;;;;4438044;32;19960;-74
2024/04/03 14:26:58;;;;;;;;;;;;;;;;;;4437101;32;19973;-77
2024/04/03 14:29:23;;;;;;;;;;;;;;;;;;4438053;32;19952;-76
2024/04/03 14:31:48;;;;;;;;;;;;;;;;;;4447933;32;19940;-75
2024/04/03 14:34:14;;;;;;;;;;;;;;;;;;4444066;32;19949;-76
2024/04/03 14:36:39;;;;;;;;;;;;;;;;;;4441157;32;19937;-77
2024/04/03 14:39:04;;;;;;;;;;;;;;;;;;4439701;32;19940;-77
2024/04/03 14:41:29;;;;;;;;;;;;;;;;;;4449269;32;19944;-73
2024/04/03 14:43:54;;;;;;;;;;;;;;;;;;4450619;32;19941;-75
2024/04/03 14:46:20;;;;;;;;;;;;;;;;;;4444407;32;19960;-78
2024/04/03 14:48:45;;;;;;;;;;;;;;;;;;4434487;32;19929;-79
2024/04/03 14:51:11;;;;;;;;;;;;;;;;;;4435643;32;19977;-77
2024/04/03 14:53:36;;;;;;;;;;;;;;;;;;4448155;32;19937;-75
2024/04/03 14:56:01;;;;;;;;;;;;;;;;;;4450873;32;19987;-79
2024/04/03 14:58:27;;;;;;;;;;;;;;;;;;4450014;32;19944;-77
2024/04/03 15:00:52;;;;;;;;;;;;;;;;;;4449315;32;20305;-77
2024/04/03 15:03:17;;;;;;;;;;;;;;;;;;4437716;32;20366;-78
2024/04/03 15:05:42;;;;;;;;;;;;;;;;;;4435160;32;19951;-77
2024/04/03 15:08:07;;;;;;;;;;;;;;;;;;4437680;32;19952;-77
2024/04/03 15:10:32;;;;;;;;;;;;;;;;;;4450656;32;19951;-75
2024/04/03 15:12:57;;;;;;;;;;;;;;;;;;4446366;32;19936;-75
2024/04/03 15:15:23;;;;;;;;;;;;;;;;;;4438699;32;19937;-75
2024/04/03 15:17:48;;;;;;;;;;;;;;;;;;4442556;32;19967;-75
2024/04/03 15:20:13;;;;;;;;;;;;;;;;;;4453273;32;19951;-74
2024/04/03 15:22:39;;;;;;;;;;;;;;;;;;4445884;32;19936;-74
2024/04/03 15:25:04;;;;;;;;;;;;;;;;;;4453636;32;20372;-73
2024/04/03 15:27:31;;;;;;;;;;;;;;;;;;4440330;32;19948;-75
2024/04/03 15:29:57;;;;;;;;;;;;;;;;;;4437630;32;20285;-74
2024/04/03 15:32:22;;;;;;;;;;;;;;;;;;4442759;32;20331;-74
2024/04/03 15:34:55;;;;;;;;;;;;;;;;;;4452093;32;19992;-74
2024/04/03 15:37:20;;;;;;;;;;;;;;;;;;4451614;32;19963;-72
2024/04/03 15:39:45;;;;;;;;;;;;;;;;;;4452209;32;19937;-73
2024/04/03 15:42:10;;;;;;;;;;;;;;;;;;4446048;32;19964;-73
2024/04/03 15:44:35;;;;;;;;;;;;;;;;;;4451882;32;19948;-74
2024/04/03 15:47:00;;;;;;;;;;;;;;;;;;4453533;32;19967;-74
2024/04/03 15:49:26;;;;;;;;;;;;;;;;;;4440786;32;19944;-73
2024/04/03 15:51:51;;;;;;;;;;;;;;;;;;4438915;32;19976;-74
2024/04/03 15:54:16;;;;;;;;;;;;;;;;;;4450088;32;19948;-72
2024/04/03 15:56:42;;;;;;;;;;;;;;;;;;4454205;32;19984;-75
2024/04/03 15:59:07;;;;;;;;;;;;;;;;;;4452485;32;19942;-75
2024/04/03 16:01:32;;;;;;;;;;;;;;;;;;4451326;32;20386;-75
2024/04/03 16:03:57;;;;;;;;;;;;;;;;;;4436281;32;19947;-74
2024/04/03 16:06:24;;;;;;;;;;;;;;;;;;4436958;32;19940;-75
2024/04/03 16:08:50;;;;;;;;;;;;;;;;;;4449230;32;20327;-74
2024/04/03 16:11:15;;;;;;;;;;;;;;;;;;4437437;32;20253;-75
2024/04/03 16:13:40;;;;;;;;;;;;;;;;;;4444785;32;19974;-73
2024/04/03 16:16:05;;;;;;;;;;;;;;;;;;4452801;32;20325;-72
2024/04/03 16:18:30;;;;;;;;;;;;;;;;;;4452460;32;19956;-72
2024/04/03 16:20:55;;;;;;;;;;;;;;;;;;4454159;32;20265;-73
2024/04/03 16:23:20;;;;;;;;;;;;;;;;;;4452203;32;20140;-72
2024/04/03 16:25:45;;;;;;;;;;;;;;;;;;4452395;32;20306;-71
2024/04/03 16:28:11;;;;;;;;;;;;;;;;;;4452728;32;19936;-71
2024/04/03 16:30:36;;;;;;;;;;;;;;;;;;4451283;32;19936;-71
2024/04/03 16:33:01;;;;;;;;;;;;;;;;;;4453822;32;20393;-73
2024/04/03 16:35:26;;;;;;;;;;;;;;;;;;4449917;32;20335;-71
2024/04/03 16:37:51;;;;;;;;;;;;;;;;;;4450848;32;20373;-72